Strona główna
METAR-TAF:

METAR-TAF

Lotnisko :

Bedford, Pensylwania, Stany Zjednoczone

Szerokość geograficzna: 40-05-10N, Długość geograficzna: 078-30-49W, wysokość: 354 m

Aktualna obserwacja pogody

Raport powstał 21 minut temu, godzina 10:50 UTC
Wiatr 9 kt od południowo-południowy wschód
Temperatura 5°C
Wilgotność 56%
Ciśnienie 1020 hPa
Widzialność: 16.1 km
Zachmurzenie całkowite na wysokości 6000 ft

METAR: KHMZ 181050Z AUTO 15009KT 10SM OVC060 05/M03 A3012 RMK AO2 T00491028

czas: 06:11 (11:11 UTC)


TAF: brakujący

Obserwacja i prognoza pogody dla ponad 4000 lotnisk (raport METAR i TAF).

Dostępne stacje oznaczono żółtymi i czerwonymi punktami na mapie.

Najedź kursorem aby zobaczyć nazwę stacji.

Kliknij aby zobaczyć obserwacje i prognozy pogody.

Aby zmienić mapę: kliknij na zielony przycisk z czarnym krzyżykiem, aby powiększyć; na zielony przycisk z myślnikiem, aby pomniejszyć; na zielone strzałki, aby przejść do map sąsiednich.


METAR-TAF: